createdAt,value
2022-09-02T00:00:46.500Z,18.00
2022-09-02T00:03:23.122Z,18.00
2022-09-02T00:06:35.387Z,18.00
2022-09-02T00:09:24.159Z,18.00
2022-09-02T00:12:02.822Z,17.90
2022-09-02T00:14:50.697Z,17.90
2022-09-02T00:17:29.811Z,17.90
2022-09-02T00:20:05.150Z,17.80
2022-09-02T00:22:40.617Z,17.80
2022-09-02T00:29:03.911Z,17.70
2022-09-02T00:32:09.837Z,17.70
2022-09-02T00:35:40.430Z,17.70
2022-09-02T00:38:31.500Z,17.70
2022-09-02T00:41:13.124Z,17.70
2022-09-02T00:43:53.444Z,17.70
2022-09-02T00:46:30.673Z,17.70
2022-09-02T00:49:10.121Z,17.60
2022-09-02T00:51:49.691Z,17.50
2022-09-02T00:54:28.828Z,17.50
2022-09-02T00:57:06.139Z,17.60
2022-09-02T00:59:51.931Z,17.60
2022-09-02T01:02:33.109Z,17.60
2022-09-02T01:05:12.811Z,17.60
2022-09-02T01:07:49.191Z,17.60
2022-09-02T01:13:03.372Z,17.50
2022-09-02T01:15:42.260Z,17.40
2022-09-02T01:21:00.488Z,17.40
2022-09-02T01:23:41.525Z,17.40
2022-09-02T01:26:18.064Z,17.40
2022-09-02T01:28:53.998Z,17.40
2022-09-02T01:31:29.757Z,17.40
2022-09-02T01:34:08.432Z,17.80
2022-09-02T01:36:47.622Z,17.60
2022-09-02T01:39:25.467Z,17.50
2022-09-02T01:42:02.313Z,17.50
2022-09-02T01:44:39.426Z,17.60
2022-09-02T01:47:14.946Z,17.60
2022-09-02T01:49:53.367Z,17.50
2022-09-02T01:52:33.077Z,17.40
2022-09-02T01:55:12.021Z,17.40
2022-09-02T01:57:47.565Z,17.50
2022-09-02T02:00:24.248Z,17.60
2022-09-02T02:08:29.521Z,17.50
2022-09-02T02:11:09.278Z,17.50
2022-09-02T02:13:44.828Z,17.50
2022-09-02T02:16:20.577Z,17.40
2022-09-02T02:18:56.487Z,17.40
2022-09-02T02:21:32.220Z,17.40
2022-09-02T02:24:08.191Z,17.30
2022-09-02T02:26:45.690Z,17.20
2022-09-02T02:29:21.717Z,17.30
2022-09-02T02:31:57.777Z,17.20
2022-09-02T02:34:33.377Z,17.30
2022-09-02T02:37:09.177Z,17.20
2022-09-02T02:39:45.423Z,17.20
2022-09-02T02:42:23.270Z,17.10
2022-09-02T02:44:59.039Z,17.10
2022-09-02T02:47:35.030Z,17.10
2022-09-02T02:50:16.211Z,17.20
2022-09-02T02:52:53.590Z,17.20
2022-09-02T02:55:30.625Z,17.20
2022-09-02T02:58:08.250Z,17.10
2022-09-02T03:00:44.232Z,17.20
2022-09-02T03:03:22.285Z,17.10
2022-09-02T03:06:01.958Z,17.10
2022-09-02T03:08:39.256Z,17.00
2022-09-02T03:11:16.238Z,17.00
2022-09-02T03:13:54.324Z,16.90
2022-09-02T03:16:30.047Z,17.00
2022-09-02T03:19:08.738Z,16.90
2022-09-02T03:21:44.438Z,17.00
2022-09-02T03:24:20.101Z,17.00
2022-09-02T03:26:55.756Z,17.00
2022-09-02T03:29:33.048Z,16.90
2022-09-02T03:32:08.890Z,16.90
2022-09-02T03:34:45.296Z,17.00
2022-09-02T03:37:21.066Z,17.00
2022-09-02T03:39:56.800Z,17.10
2022-09-02T03:42:32.356Z,17.10
2022-09-02T03:45:12.084Z,17.00
2022-09-02T03:47:53.082Z,17.00
2022-09-02T03:50:34.767Z,17.00
2022-09-02T03:53:23.258Z,16.90
2022-09-02T03:56:11.403Z,16.90
2022-09-02T03:58:49.278Z,17.00
2022-09-02T04:01:36.890Z,16.90
2022-09-02T04:04:13.627Z,17.00
2022-09-02T04:09:26.046Z,17.10
2022-09-02T04:12:02.030Z,17.20
2022-09-02T04:14:38.098Z,17.20
2022-09-02T04:17:15.909Z,17.20
2022-09-02T04:19:54.281Z,17.30
2022-09-02T04:22:29.779Z,17.30
2022-09-02T04:25:07.848Z,17.20
2022-09-02T04:27:43.905Z,17.20
2022-09-02T04:30:20.249Z,17.00
2022-09-02T04:32:59.144Z,17.00
2022-09-02T04:35:37.639Z,17.00
2022-09-02T04:38:13.828Z,17.00
2022-09-02T04:40:51.389Z,17.00
2022-09-02T04:43:28.984Z,16.90
2022-09-02T04:46:04.815Z,16.80
2022-09-02T04:48:43.093Z,16.80
2022-09-02T04:51:21.415Z,16.80
2022-09-02T04:53:58.593Z,16.80
2022-09-02T04:59:11.676Z,16.90
2022-09-02T05:01:51.987Z,16.90
2022-09-02T05:04:35.602Z,16.80
2022-09-02T05:07:32.845Z,16.80
2022-09-02T05:10:08.948Z,16.70
2022-09-02T05:12:48.807Z,16.60
2022-09-02T05:15:28.412Z,16.60
2022-09-02T05:18:04.551Z,16.50
2022-09-02T05:20:45.398Z,16.50
2022-09-02T05:23:21.809Z,16.40
2022-09-02T05:25:57.855Z,16.40
2022-09-02T05:28:34.798Z,16.40
2022-09-02T05:31:12.833Z,16.40
2022-09-02T05:33:50.020Z,16.30
2022-09-02T05:36:30.741Z,16.30
2022-09-02T05:39:06.989Z,16.20
2022-09-02T05:41:44.998Z,16.20
2022-09-02T05:44:20.522Z,16.30
2022-09-02T05:46:57.444Z,16.30
2022-09-02T05:49:33.315Z,16.20
2022-09-02T05:52:17.541Z,16.30
2022-09-02T05:54:56.849Z,16.30
2022-09-02T05:57:32.784Z,16.30
2022-09-02T06:00:17.745Z,16.30
2022-09-02T06:03:03.126Z,16.30
2022-09-02T06:05:44.324Z,16.20
2022-09-02T06:08:29.235Z,16.10
2022-09-02T06:11:07.264Z,16.10
2022-09-02T06:13:50.055Z,16.00
2022-09-02T06:16:28.067Z,15.90
2022-09-02T06:19:05.482Z,15.80
2022-09-02T06:21:43.998Z,15.80
2022-09-02T06:24:21.529Z,15.80
2022-09-02T06:26:59.455Z,15.80
2022-09-02T06:29:34.973Z,15.80
2022-09-02T06:32:10.809Z,15.90
2022-09-02T06:34:50.493Z,16.00
2022-09-02T06:37:26.766Z,15.90
2022-09-02T06:40:05.541Z,16.00
2022-09-02T06:42:40.999Z,16.00
2022-09-02T06:45:25.974Z,16.10
2022-09-02T06:48:03.539Z,16.10
2022-09-02T06:50:49.129Z,16.10
2022-09-02T06:53:24.413Z,16.10
2022-09-02T06:56:02.366Z,16.10
2022-09-02T06:58:38.301Z,16.00
2022-09-02T07:01:23.896Z,16.00
2022-09-02T07:04:15.880Z,16.00
2022-09-02T07:06:53.486Z,16.00
2022-09-02T07:09:35.059Z,16.00
2022-09-02T07:12:23.149Z,16.10
2022-09-02T07:15:13.031Z,16.10
2022-09-02T07:17:51.665Z,16.20
2022-09-02T07:20:39.867Z,16.20
2022-09-02T07:23:15.660Z,16.20
2022-09-02T07:25:52.024Z,16.10
2022-09-02T07:28:30.314Z,16.10
2022-09-02T07:31:06.173Z,16.10
2022-09-02T07:33:42.067Z,16.10
2022-09-02T07:36:18.373Z,16.10
2022-09-02T07:38:57.973Z,16.00
2022-09-02T07:41:34.734Z,16.00
2022-09-02T07:44:16.357Z,16.10
2022-09-02T07:46:52.694Z,16.10
2022-09-02T07:50:14.967Z,16.10
2022-09-02T07:52:25.298Z,16.10
2022-09-02T07:55:02.159Z,16.00
2022-09-02T07:57:38.691Z,15.90
2022-09-02T08:00:18.870Z,15.90
2022-09-02T08:02:59.448Z,15.90
2022-09-02T08:05:43.801Z,15.80
2022-09-02T08:08:25.495Z,15.70
2022-09-02T08:11:05.891Z,15.70
2022-09-02T08:13:45.196Z,15.60
2022-09-02T08:16:27.508Z,15.60
2022-09-02T08:19:04.013Z,15.60
2022-09-02T08:21:45.205Z,15.60
2022-09-02T08:24:28.691Z,15.50
2022-09-02T08:27:08.071Z,15.50
2022-09-02T08:29:44.573Z,15.60
2022-09-02T08:32:22.873Z,15.60
2022-09-02T08:34:58.860Z,15.70
2022-09-02T08:37:35.087Z,15.70
2022-09-02T08:40:18.821Z,15.70
2022-09-02T08:42:57.402Z,15.70
2022-09-02T08:45:36.181Z,15.70
2022-09-02T08:48:20.860Z,15.60
2022-09-02T08:51:03.360Z,15.70
2022-09-02T08:53:45.433Z,15.70
2022-09-02T08:56:22.418Z,15.70
2022-09-02T08:59:00.879Z,15.70
2022-09-02T09:01:46.202Z,15.70
2022-09-02T09:04:34.961Z,15.70
2022-09-02T09:07:28.494Z,15.70
2022-09-02T09:10:16.892Z,15.80
2022-09-02T09:13:54.386Z,15.70
2022-09-02T09:16:48.709Z,15.70
2022-09-02T09:19:35.784Z,15.70
2022-09-02T09:22:15.639Z,15.80
2022-09-02T09:24:56.025Z,15.80
2022-09-02T09:27:31.471Z,15.60
2022-09-02T09:30:12.848Z,15.70
2022-09-02T09:32:54.264Z,15.70
2022-09-02T09:35:32.376Z,15.90
2022-09-02T09:38:18.258Z,15.90
2022-09-02T09:40:53.933Z,15.90
2022-09-02T09:43:36.085Z,15.90
2022-09-02T09:46:32.339Z,15.90
2022-09-02T09:49:08.247Z,15.90
2022-09-02T09:52:00.287Z,15.90
2022-09-02T09:54:36.219Z,15.90
2022-09-02T09:57:35.842Z,16.00
2022-09-02T10:00:31.492Z,15.90
2022-09-02T10:03:12.815Z,15.90
2022-09-02T10:05:48.732Z,16.00
2022-09-02T10:14:06.545Z,16.10
2022-09-02T10:16:53.316Z,15.90
2022-09-02T10:19:36.030Z,15.90
2022-09-02T10:23:13.750Z,15.90
2022-09-02T10:26:07.814Z,15.90
2022-09-02T10:34:21.096Z,16.00
2022-09-02T10:40:16.710Z,15.90
2022-09-02T10:43:05.208Z,15.90
2022-09-02T10:45:49.663Z,15.90
2022-09-02T10:48:38.414Z,16.00
2022-09-02T10:51:20.673Z,16.00
2022-09-02T10:54:13.598Z,16.00
2022-09-02T10:56:55.637Z,16.00
2022-09-02T10:59:37.414Z,16.00
2022-09-02T11:02:20.349Z,15.90
2022-09-02T11:05:03.083Z,15.90
2022-09-02T11:07:45.759Z,15.90
2022-09-02T11:10:25.679Z,15.90
2022-09-02T11:13:08.536Z,15.90
2022-09-02T11:16:13.635Z,15.90
2022-09-02T11:19:01.075Z,16.00
2022-09-02T11:21:58.080Z,16.00
2022-09-02T11:24:43.266Z,16.10
2022-09-02T11:27:41.583Z,16.00
2022-09-02T11:30:24.505Z,16.00
2022-09-02T11:33:17.860Z,16.00
2022-09-02T11:35:53.332Z,16.00
2022-09-02T11:38:41.128Z,16.00
2022-09-02T11:41:37.801Z,15.90
2022-09-02T11:44:52.854Z,15.90
2022-09-02T11:47:53.164Z,15.90
2022-09-02T11:50:44.976Z,16.10
2022-09-02T11:53:28.253Z,16.10
2022-09-02T11:56:09.536Z,16.10
2022-09-02T11:58:54.196Z,16.10
2022-09-02T12:01:33.908Z,16.10
2022-09-02T12:16:43.046Z,16.30
2022-09-02T12:19:44.476Z,16.20
2022-09-02T12:22:45.239Z,16.20
2022-09-02T12:25:46.086Z,16.20
2022-09-02T12:28:33.992Z,16.20
2022-09-02T12:31:21.715Z,16.10
2022-09-02T12:34:02.299Z,16.20
2022-09-02T12:36:55.261Z,16.10
2022-09-02T12:40:03.147Z,16.20
2022-09-02T12:42:41.451Z,15.90
2022-09-02T12:45:29.940Z,16.20
2022-09-02T12:48:11.764Z,16.20
2022-09-02T12:51:07.407Z,16.20
2022-09-02T12:53:46.675Z,16.10
2022-09-02T12:56:28.518Z,16.20
2022-09-02T12:59:04.416Z,16.20
2022-09-02T13:01:48.360Z,16.30
2022-09-02T13:04:43.701Z,16.30
2022-09-02T13:07:50.912Z,16.30
2022-09-02T13:11:02.790Z,16.30
2022-09-02T13:14:10.983Z,16.30
2022-09-02T13:17:19.194Z,16.30
2022-09-02T13:20:41.263Z,16.20
2022-09-02T13:24:00.267Z,16.20
2022-09-02T13:27:12.146Z,16.10
2022-09-02T13:30:18.026Z,16.10
2022-09-02T13:33:04.278Z,16.00
2022-09-02T13:35:43.379Z,16.10
2022-09-02T13:38:30.448Z,15.90
2022-09-02T13:41:09.557Z,16.00
2022-09-02T13:44:11.883Z,16.00
2022-09-02T13:49:56.854Z,15.90
2022-09-02T13:56:27.535Z,15.80
2022-09-02T13:59:09.181Z,15.90
2022-09-02T14:01:56.329Z,15.90
2022-09-02T14:04:41.528Z,15.80
2022-09-02T14:07:19.277Z,15.80
2022-09-02T14:10:05.485Z,15.80
2022-09-02T14:13:01.099Z,15.80
2022-09-02T14:15:48.584Z,15.80
2022-09-02T14:18:29.488Z,15.60
2022-09-02T14:21:22.979Z,15.70
2022-09-02T14:24:05.659Z,15.70
2022-09-02T14:26:47.231Z,15.70
2022-09-02T14:29:36.817Z,15.70
2022-09-02T14:32:18.106Z,15.70
2022-09-02T14:35:30.080Z,15.70
2022-09-02T14:38:36.688Z,15.70
2022-09-02T14:41:33.658Z,15.60
2022-09-02T14:44:28.642Z,15.60
2022-09-02T14:47:25.553Z,15.60
2022-09-02T14:53:16.903Z,15.60
2022-09-02T14:56:05.483Z,15.50
2022-09-02T14:58:53.297Z,15.40
2022-09-02T15:01:32.234Z,15.40
2022-09-02T15:04:14.593Z,15.40
2022-09-02T15:07:02.192Z,15.40
2022-09-02T15:09:43.263Z,15.40
2022-09-02T15:12:34.080Z,15.40
2022-09-02T15:15:12.921Z,15.40
2022-09-02T15:17:54.211Z,15.40
2022-09-02T15:20:56.468Z,15.40
2022-09-02T15:23:42.428Z,15.40
2022-09-02T15:26:21.279Z,15.40
2022-09-02T15:29:05.641Z,15.40
2022-09-02T15:31:50.012Z,15.40
2022-09-02T15:34:27.385Z,15.40
2022-09-02T15:37:05.804Z,15.40
2022-09-02T15:39:49.418Z,15.40
2022-09-02T15:42:25.579Z,15.40
2022-09-02T15:45:05.540Z,15.40
2022-09-02T15:47:43.025Z,15.40
2022-09-02T15:50:18.550Z,15.40
2022-09-02T15:52:57.548Z,15.40
2022-09-02T15:55:36.067Z,15.40
2022-09-02T15:58:11.975Z,15.40
2022-09-02T16:00:49.411Z,15.30
2022-09-02T16:03:24.982Z,15.40
2022-09-02T16:06:06.920Z,15.30
2022-09-02T16:08:43.207Z,15.40
2022-09-02T16:11:19.175Z,15.40
2022-09-02T16:13:55.140Z,15.40
2022-09-02T16:16:32.600Z,15.50
2022-09-02T16:19:09.159Z,15.40
2022-09-02T16:21:46.483Z,15.40
2022-09-02T16:24:23.203Z,15.40
2022-09-02T16:27:05.504Z,15.40
2022-09-02T16:29:41.238Z,15.40
2022-09-02T16:32:27.334Z,15.30
2022-09-02T16:35:03.474Z,15.30
2022-09-02T16:37:39.288Z,15.20
2022-09-02T16:40:22.843Z,15.20
2022-09-02T16:42:58.616Z,15.20
2022-09-02T16:48:10.634Z,15.30
2022-09-02T16:50:45.806Z,15.30
2022-09-02T16:53:21.487Z,15.30
2022-09-02T16:55:56.810Z,15.30
2022-09-02T16:58:33.540Z,15.30
2022-09-02T17:01:13.377Z,15.30
2022-09-02T17:03:51.201Z,17.10
2022-09-02T17:06:27.043Z,15.20
2022-09-02T17:09:03.840Z,15.20
2022-09-02T17:11:41.468Z,15.30
2022-09-02T17:14:18.453Z,15.30
2022-09-02T17:16:55.755Z,15.30
2022-09-02T17:19:34.802Z,15.30
2022-09-02T17:22:10.938Z,15.20
2022-09-02T17:24:46.655Z,15.20
2022-09-02T17:27:24.126Z,15.20
2022-09-02T17:30:01.642Z,15.10
2022-09-02T17:32:37.157Z,15.10
2022-09-02T17:35:16.205Z,15.00
2022-09-02T17:37:51.653Z,14.90
2022-09-02T17:40:42.901Z,14.90
2022-09-02T17:43:19.127Z,15.00
2022-09-02T17:45:56.649Z,14.90
2022-09-02T17:48:41.773Z,14.90
2022-09-02T17:51:22.947Z,14.90
2022-09-02T17:54:02.120Z,14.90
2022-09-02T17:57:06.696Z,14.90
2022-09-02T18:00:02.115Z,14.80
2022-09-02T18:03:22.431Z,14.80
2022-09-02T18:06:23.430Z,14.80
2022-09-02T18:09:03.018Z,14.80
2022-09-02T18:11:39.055Z,14.70
2022-09-02T18:14:23.552Z,14.70
2022-09-02T18:17:09.714Z,14.70
2022-09-02T18:20:01.641Z,14.70
2022-09-02T18:23:11.664Z,14.60
2022-09-02T18:25:55.712Z,14.60
2022-09-02T18:28:49.666Z,14.60
2022-09-02T18:31:39.593Z,14.60
2022-09-02T18:34:32.800Z,14.50
2022-09-02T18:37:18.202Z,14.50
2022-09-02T18:40:09.202Z,14.60
2022-09-02T18:42:58.212Z,14.60
2022-09-02T18:45:42.531Z,14.60
2022-09-02T18:48:20.606Z,14.60
2022-09-02T18:50:59.616Z,14.60
2022-09-02T18:53:38.240Z,14.60
2022-09-02T18:56:16.432Z,14.50
2022-09-02T18:58:59.334Z,14.50
2022-09-02T19:01:37.151Z,14.50
2022-09-02T19:04:13.829Z,14.50
2022-09-02T19:06:50.071Z,14.60
2022-09-02T19:09:28.523Z,14.60
2022-09-02T19:12:07.751Z,14.60
2022-09-02T19:17:22.334Z,14.80
2022-09-02T19:19:57.736Z,14.70
2022-09-02T19:22:33.862Z,14.60
2022-09-02T19:25:15.148Z,14.60
2022-09-02T19:27:52.495Z,14.60
2022-09-02T19:33:19.851Z,14.70
2022-09-02T19:35:56.827Z,14.70
2022-09-02T19:38:33.005Z,14.60
2022-09-02T19:41:12.221Z,14.60
2022-09-02T19:43:47.874Z,14.60
2022-09-02T19:49:20.716Z,14.60
2022-09-02T19:51:56.055Z,14.60
2022-09-02T19:54:31.194Z,14.60
2022-09-02T19:57:06.650Z,14.60
2022-09-02T19:59:41.965Z,14.60
2022-09-02T20:02:20.597Z,14.60
2022-09-02T20:04:59.476Z,14.50
2022-09-02T20:07:37.883Z,14.60
2022-09-02T20:10:13.987Z,14.50
2022-09-02T20:12:49.914Z,14.50
2022-09-02T20:15:28.579Z,14.40
2022-09-02T20:18:13.969Z,14.40
2022-09-02T20:20:50.691Z,14.40
2022-09-02T20:23:27.897Z,14.20
2022-09-02T20:26:30.751Z,14.20
2022-09-02T20:29:26.882Z,14.30
2022-09-02T20:32:15.924Z,14.20
2022-09-02T20:35:07.633Z,14.10
2022-09-02T20:37:53.530Z,14.10
2022-09-02T20:40:36.963Z,14.00
2022-09-02T20:43:57.000Z,14.00
2022-09-02T20:47:16.778Z,14.00
2022-09-02T20:50:12.706Z,13.90
2022-09-02T20:52:59.056Z,13.80
2022-09-02T20:55:39.951Z,13.80
2022-09-02T20:58:32.471Z,13.80
2022-09-02T21:01:11.812Z,13.70
2022-09-02T21:03:56.134Z,13.80
2022-09-02T21:06:38.907Z,13.60
2022-09-02T21:09:23.902Z,13.60
2022-09-02T21:12:04.529Z,13.60
2022-09-02T21:14:47.762Z,13.50
2022-09-02T21:17:31.538Z,13.50
2022-09-02T21:20:16.464Z,13.40
2022-09-02T21:23:00.006Z,13.40
2022-09-02T21:25:58.480Z,13.50
2022-09-02T21:28:40.789Z,13.40
2022-09-02T21:31:26.951Z,13.40
2022-09-02T21:34:09.612Z,13.50
2022-09-02T21:36:45.678Z,13.50
2022-09-02T21:39:23.623Z,13.40
2022-09-02T21:42:10.925Z,13.40
2022-09-02T21:44:59.058Z,13.30
2022-09-02T21:47:41.363Z,13.30
2022-09-02T21:50:24.349Z,13.30
2022-09-02T21:53:14.704Z,13.20
2022-09-02T21:56:05.929Z,13.20
2022-09-02T21:59:06.641Z,13.10
2022-09-02T22:01:48.652Z,13.10
2022-09-02T22:04:43.289Z,13.10
2022-09-02T22:07:24.190Z,13.20
2022-09-02T22:10:12.854Z,13.20
2022-09-02T22:12:54.112Z,13.20
2022-09-02T22:15:39.261Z,13.30
2022-09-02T22:18:22.815Z,13.30
2022-09-02T22:21:04.200Z,13.30
2022-09-02T22:23:41.732Z,13.30
2022-09-02T22:26:29.304Z,13.40
2022-09-02T22:29:09.788Z,13.40
2022-09-02T22:31:48.620Z,13.40
2022-09-02T22:34:28.383Z,13.40
2022-09-02T22:37:08.536Z,13.40
2022-09-02T22:39:52.235Z,13.40
2022-09-02T22:42:37.682Z,13.50
2022-09-02T22:45:46.014Z,13.50
2022-09-02T22:48:41.205Z,13.50
2022-09-02T22:51:39.064Z,13.40
2022-09-02T22:54:14.607Z,13.40
2022-09-02T22:56:58.560Z,13.50
2022-09-02T22:59:51.485Z,13.50
2022-09-02T23:05:46.866Z,13.70
2022-09-02T23:08:24.297Z,13.80
2022-09-02T23:11:08.899Z,13.80
2022-09-02T23:14:00.648Z,13.90
2022-09-02T23:16:49.065Z,14.00
2022-09-02T23:19:38.247Z,14.00
2022-09-02T23:22:21.711Z,14.00
2022-09-02T23:25:06.084Z,14.10
2022-09-02T23:27:56.825Z,14.10
2022-09-02T23:30:34.018Z,14.10
2022-09-02T23:33:44.707Z,14.20
2022-09-02T23:36:39.908Z,14.20
2022-09-02T23:40:15.371Z,14.20
2022-09-02T23:42:55.879Z,14.20
2022-09-02T23:45:40.845Z,14.30
2022-09-02T23:51:52.704Z,14.30
2022-09-02T23:55:08.965Z,14.40
2022-09-02T23:58:31.661Z,14.30
